TAX06MM LSZS-EGJJ
Flight info
| Callsign | TAX06MM |
|---|---|
| Flight time | N/A |
| Altitude | 23000 |
| Route | PELAD Z119 PIXOS/N0427F240 N851 ELMUR DCT RIPUS L613 HOC/N0392F180 Y112 RLP R11 MOTAL A3 DOMOD H20 LGL H490 ARGED DCT SENLO G274 BEVAV |
| Aircraft | B738/M-SDE2E3FGHIRWXY/LB1 |
Departure
| Time | 2026-04-26 14:35 |
|---|---|
| Airport | Engadin Airport (LSZS) |
Arrival
| Time | N/A |
|---|---|
| Airport | Jersey Airport (EGJJ) |
| Time | Latitude | Longitude | Altitude | Speed | Heading |
|---|---|---|---|---|---|
| 2026-04-26 13:55 | 46.53093 | 9.87972 | 5607 ft | 0 kts | 204° |
| 2026-04-26 14:30 | 46.53080 | 9.87964 | 5611 ft | 5 kts | 204° |
| 2026-04-26 14:30 | 46.53047 | 9.87941 | 5606 ft | 5 kts | 206° |
| 2026-04-26 14:31 | 46.53012 | 9.87941 | 5604 ft | 5 kts | 150° |
| 2026-04-26 14:31 | 46.52986 | 9.87988 | 5602 ft | 7 kts | 117° |
| 2026-04-26 14:31 | 46.53004 | 9.88051 | 5600 ft | 8 kts | 35° |
| 2026-04-26 14:31 | 46.53072 | 9.88108 | 5609 ft | 14 kts | 29° |
| 2026-04-26 14:32 | 46.53170 | 9.88188 | 5610 ft | 19 kts | 29° |
| 2026-04-26 14:32 | 46.53302 | 9.88296 | 5612 ft | 24 kts | 29° |
| 2026-04-26 14:32 | 46.53468 | 9.88431 | 5608 ft | 30 kts | 29° |
| 2026-04-26 14:32 | 46.53649 | 9.88578 | 5603 ft | 29 kts | 29° |
| 2026-04-26 14:33 | 46.53819 | 9.88716 | 5608 ft | 27 kts | 29° |
| 2026-04-26 14:33 | 46.53960 | 9.88842 | 5607 ft | 16 kts | 45° |
| 2026-04-26 14:33 | 46.54052 | 9.88929 | 5609 ft | 14 kts | 27° |
| 2026-04-26 14:33 | 46.54102 | 9.88942 | 5604 ft | 10 kts | 346° |
| 2026-04-26 14:34 | 46.54136 | 9.88969 | 5613 ft | 4 kts | 110° |
| 2026-04-26 14:34 | 46.54111 | 9.88958 | 5605 ft | 4 kts | 222° |
| 2026-04-26 14:34 | 46.54097 | 9.88943 | 5604 ft | 0 kts | 210° |
| 2026-04-26 14:34 | 46.54096 | 9.88943 | 5604 ft | 2 kts | 210° |
| 2026-04-26 14:35 | 46.53891 | 9.88774 | 5608 ft | 71 kts | 209° |
| 2026-04-26 14:35 | 46.53257 | 9.88258 | 5609 ft | 136 kts | 209° |
| 2026-04-26 14:35 | 46.52273 | 9.87475 | 5791 ft | 174 kts | 208° |
| 2026-04-26 14:35 | 46.51154 | 9.86685 | 6501 ft | 188 kts | 207° |
| 2026-04-26 14:36 | 46.49986 | 9.85726 | 7154 ft | 196 kts | 217° |
| 2026-04-26 14:36 | 46.49018 | 9.84406 | 8023 ft | 183 kts | 226° |
| 2026-04-26 14:36 | 46.48180 | 9.83153 | 9026 ft | 167 kts | 227° |
| 2026-04-26 14:36 | 46.47307 | 9.81880 | 9331 ft | 195 kts | 226° |
| 2026-04-26 14:37 | 46.46268 | 9.80436 | 9513 ft | 215 kts | 223° |
| 2026-04-26 14:37 | 46.45126 | 9.78948 | 9753 ft | 234 kts | 220° |
| 2026-04-26 14:37 | 46.43841 | 9.77412 | 10133 ft | 245 kts | 220° |
| 2026-04-26 14:37 | 46.42504 | 9.75836 | 10746 ft | 248 kts | 219° |
| 2026-04-26 14:38 | 46.41162 | 9.74259 | 11505 ft | 248 kts | 220° |
| 2026-04-26 14:38 | 46.39815 | 9.72678 | 12198 ft | 251 kts | 220° |
| 2026-04-26 14:38 | 46.38632 | 9.70776 | 12672 ft | 264 kts | 246° |
| 2026-04-26 14:38 | 46.38323 | 9.68072 | 12870 ft | 287 kts | 279° |
| 2026-04-26 14:39 | 46.39011 | 9.65284 | 13076 ft | 311 kts | 294° |
| 2026-04-26 14:39 | 46.39986 | 9.62360 | 13280 ft | 333 kts | 296° |
| 2026-04-26 14:39 | 46.41047 | 9.59244 | 13459 ft | 355 kts | 295° |
| 2026-04-26 14:39 | 46.42163 | 9.55934 | 13638 ft | 375 kts | 295° |
| 2026-04-26 14:40 | 46.43317 | 9.52455 | 13955 ft | 387 kts | 295° |
| 2026-04-26 14:40 | 46.44483 | 9.48881 | 14127 ft | 399 kts | 295° |
| 2026-04-26 14:40 | 46.45656 | 9.45249 | 14060 ft | 395 kts | 295° |
| 2026-04-26 14:40 | 46.46809 | 9.41652 | 14034 ft | 391 kts | 295° |
| 2026-04-26 14:41 | 46.47943 | 9.38094 | 14011 ft | 386 kts | 294° |
| 2026-04-26 14:41 | 46.49075 | 9.34534 | 14006 ft | 388 kts | 294° |
| 2026-04-26 14:41 | 46.50209 | 9.30959 | 13999 ft | 390 kts | 294° |
| 2026-04-26 14:41 | 46.51342 | 9.27381 | 13998 ft | 390 kts | 294° |
| 2026-04-26 14:42 | 46.52477 | 9.23794 | 13992 ft | 390 kts | 294° |
| 2026-04-26 14:42 | 46.53608 | 9.20216 | 13986 ft | 388 kts | 294° |
| 2026-04-26 14:42 | 46.54716 | 9.16705 | 13979 ft | 387 kts | 294° |
| 2026-04-26 14:42 | 46.55837 | 9.13149 | 13977 ft | 386 kts | 294° |
| 2026-04-26 14:43 | 46.56953 | 9.09603 | 13975 ft | 386 kts | 294° |
| 2026-04-26 14:43 | 46.58078 | 9.06029 | 13994 ft | 389 kts | 294° |
| 2026-04-26 14:43 | 46.59330 | 9.02524 | 14521 ft | 390 kts | 304° |
| 2026-04-26 14:43 | 46.61248 | 8.99738 | 15293 ft | 393 kts | 325° |
| 2026-04-26 14:44 | 46.63719 | 8.97968 | 15870 ft | 401 kts | 342° |
| 2026-04-26 14:44 | 46.66490 | 8.97293 | 16416 ft | 407 kts | 353° |
| 2026-04-26 14:44 | 46.69311 | 8.96942 | 17031 ft | 409 kts | 353° |
| 2026-04-26 14:44 | 46.72163 | 8.96614 | 17613 ft | 413 kts | 353° |
| 2026-04-26 14:45 | 46.75038 | 8.96269 | 18226 ft | 416 kts | 353° |
| 2026-04-26 14:45 | 46.76961 | 8.96022 | 18629 ft | 417 kts | 353° |
| 2026-04-26 14:45 | 46.80795 | 8.95516 | 19302 ft | 421 kts | 352° |
| 2026-04-26 14:45 | 46.83731 | 8.95116 | 19767 ft | 425 kts | 352° |
| 2026-04-26 14:46 | 46.86684 | 8.94708 | 20279 ft | 427 kts | 352° |
| 2026-04-26 14:46 | 46.89651 | 8.94298 | 20818 ft | 429 kts | 352° |
| 2026-04-26 14:46 | 46.92644 | 8.93893 | 21267 ft | 433 kts | 352° |
| 2026-04-26 14:46 | 46.95652 | 8.93491 | 21712 ft | 436 kts | 352° |
| 2026-04-26 14:47 | 46.98690 | 8.93087 | 22151 ft | 439 kts | 353° |
| 2026-04-26 14:47 | 47.01739 | 8.92682 | 22584 ft | 442 kts | 352° |
| 2026-04-26 14:47 | 47.04677 | 8.92286 | 22980 ft | 446 kts | 352° |
| 2026-04-26 14:47 | 47.07760 | 8.91871 | 23176 ft | 450 kts | 352° |
| 2026-04-26 14:48 | 47.10889 | 8.91260 | 23170 ft | 455 kts | 343° |
| 2026-04-26 14:48 | 47.13752 | 8.89393 | 23202 ft | 455 kts | 324° |
| 2026-04-26 14:48 | 47.16100 | 8.86280 | 23420 ft | 455 kts | 309° |
| 2026-04-26 14:48 | 47.17880 | 8.82467 | 23913 ft | 451 kts | 295° |
| 2026-04-26 14:49 | 47.19060 | 8.78208 | 24372 ft | 448 kts | 289° |
| 2026-04-26 14:49 | 47.20101 | 8.73889 | 24730 ft | 450 kts | 288° |
| 2026-04-26 14:49 | 47.21142 | 8.69530 | 25019 ft | 452 kts | 289° |
| 2026-04-26 14:49 | 47.22207 | 8.65151 | 25314 ft | 454 kts | 289° |
| 2026-04-26 14:50 | 47.23295 | 8.60769 | 25608 ft | 456 kts | 290° |
| 2026-04-26 14:50 | 47.24398 | 8.56379 | 25910 ft | 458 kts | 290° |
| 2026-04-26 14:50 | 47.25491 | 8.52033 | 26296 ft | 457 kts | 290° |
| 2026-04-26 14:50 | 47.26591 | 8.47651 | 26744 ft | 455 kts | 290° |
| 2026-04-26 14:51 | 47.27691 | 8.43285 | 27216 ft | 453 kts | 290° |
| 2026-04-26 14:51 | 47.28784 | 8.38947 | 27677 ft | 451 kts | 290° |
| 2026-04-26 14:51 | 47.29872 | 8.34617 | 28108 ft | 450 kts | 290° |
| 2026-04-26 14:51 | 47.30955 | 8.30293 | 28532 ft | 449 kts | 290° |
| 2026-04-26 14:52 | 47.32032 | 8.25986 | 29000 ft | 447 kts | 290° |
| 2026-04-26 14:52 | 47.33102 | 8.21701 | 29493 ft | 444 kts | 290° |
| 2026-04-26 14:52 | 47.34167 | 8.17426 | 29933 ft | 444 kts | 290° |
| 2026-04-26 14:52 | 47.35231 | 8.13147 | 30323 ft | 443 kts | 290° |
| 2026-04-26 14:53 | 47.36288 | 8.08887 | 30677 ft | 442 kts | 290° |
| 2026-04-26 14:53 | 47.37342 | 8.04633 | 31031 ft | 441 kts | 290° |
| 2026-04-26 14:53 | 47.38394 | 8.00378 | 31362 ft | 441 kts | 290° |
| 2026-04-26 14:53 | 47.39446 | 7.96116 | 31688 ft | 440 kts | 290° |
| 2026-04-26 14:54 | 47.40493 | 7.91866 | 32031 ft | 439 kts | 290° |
| 2026-04-26 14:54 | 47.41532 | 7.87640 | 32357 ft | 439 kts | 290° |
| 2026-04-26 14:54 | 47.42572 | 7.83403 | 32673 ft | 438 kts | 290° |
| 2026-04-26 14:54 | 47.43609 | 7.79169 | 32999 ft | 438 kts | 290° |
| 2026-04-26 14:55 | 47.44643 | 7.74942 | 33336 ft | 437 kts | 290° |
| 2026-04-26 14:55 | 47.45676 | 7.70713 | 33644 ft | 436 kts | 289° |
| 2026-04-26 14:55 | 47.46649 | 7.66526 | 33947 ft | 436 kts | 285° |
| 2026-04-26 14:55 | 47.47262 | 7.62145 | 34243 ft | 435 kts | 279° |